createdAt,value
2022-07-30T00:06:47.333Z,90.94
2022-07-30T00:16:47.584Z,90.23
2022-07-30T00:26:47.749Z,92.19
2022-07-30T00:36:47.952Z,91.14
2022-07-30T00:46:48.176Z,90.43
2022-07-30T00:56:48.320Z,89.68
2022-07-30T01:06:48.557Z,89.72
2022-07-30T01:16:48.850Z,88.87
2022-07-30T01:26:48.932Z,89.17
2022-07-30T01:36:49.163Z,89.83
2022-07-30T01:46:49.388Z,90.63
2022-07-30T01:56:49.623Z,89.72
2022-07-30T02:06:49.723Z,89.58
2022-07-30T02:16:49.900Z,89.92
2022-07-30T02:26:50.011Z,88.81
2022-07-30T02:36:50.051Z,89.32
2022-07-30T02:46:50.332Z,90.43
2022-07-30T02:56:50.563Z,91.34
2022-07-30T03:06:50.624Z,91.08
2022-07-30T03:16:50.851Z,91.08
2022-07-30T03:26:50.913Z,91.78
2022-07-30T03:36:51.129Z,90.88
2022-07-30T03:46:51.393Z,90.07
2022-07-30T03:56:51.685Z,90.27
2022-07-30T04:06:52.087Z,90.07
2022-07-30T04:16:51.985Z,89.97
2022-07-30T04:26:52.046Z,89.83
2022-07-30T04:36:52.253Z,90.03
2022-07-30T04:46:52.518Z,90.88
2022-07-30T04:56:54.007Z,90.12
2022-07-30T05:06:52.800Z,88.57
2022-07-30T05:16:53.054Z,86.85
2022-07-30T05:26:53.339Z,87.52
2022-07-30T05:36:53.387Z,88.83
2022-07-30T05:46:53.448Z,89.43
2022-07-30T05:56:53.703Z,88.68
2022-07-30T06:06:53.945Z,88.18
2022-07-30T06:16:54.343Z,86.83
2022-07-30T06:26:54.382Z,85.82
2022-07-30T06:36:54.549Z,85.98
2022-07-30T06:46:54.785Z,85.58
2022-07-30T06:56:55.045Z,85.64
2022-07-30T07:06:56.191Z,85.76
2022-07-30T07:16:55.495Z,82.26
2022-07-30T07:26:55.545Z,81.26
2022-07-30T07:36:55.800Z,81.90
2022-07-30T07:46:56.061Z,81.39
2022-07-30T07:56:57.303Z,81.46
2022-07-30T08:06:56.546Z,80.24
2022-07-30T08:16:56.842Z,78.19
2022-07-30T08:26:56.925Z,76.54
2022-07-30T08:36:57.188Z,76.24
2022-07-30T08:46:57.409Z,76.57
2022-07-30T08:56:57.695Z,71.92
2022-07-30T09:06:57.787Z,72.99
2022-07-30T09:16:57.892Z,72.59
2022-07-30T09:26:57.933Z,71.19
2022-07-30T09:36:58.213Z,68.16
2022-07-30T09:46:58.505Z,64.72
2022-07-30T09:57:01.904Z,68.73
2022-07-30T10:06:58.655Z,72.28
2022-07-30T10:16:58.787Z,65.28
2022-07-30T10:26:59.235Z,66.17
2022-07-30T10:36:59.186Z,63.43
2022-07-30T10:46:59.572Z,64.39
2022-07-30T10:57:00.497Z,54.57
2022-07-30T11:06:59.414Z,56.95
2022-07-30T11:16:59.739Z,56.16
2022-07-30T11:27:00.407Z,50.78
2022-07-30T11:36:59.901Z,51.32
2022-07-30T11:47:00.227Z,54.77
2022-07-30T11:57:04.373Z,66.04
2022-07-30T12:07:00.673Z,65.54
2022-07-30T12:17:00.963Z,63.03
2022-07-30T12:27:01.130Z,67.13
2022-07-30T12:37:01.321Z,69.62
2022-07-30T12:47:01.560Z,65.75
2022-07-30T12:57:01.992Z,62.92
2022-07-30T13:07:01.897Z,61.94
2022-07-30T13:17:02.140Z,56.23
2022-07-30T13:27:02.145Z,54.61
2022-07-30T13:37:02.418Z,58.00
2022-07-30T13:47:02.438Z,61.96
2022-07-30T13:57:02.711Z,55.08
2022-07-30T14:07:02.957Z,57.05
2022-07-30T14:17:03.263Z,49.23
2022-07-30T14:27:03.513Z,48.96
2022-07-30T14:37:03.540Z,46.28
2022-07-30T14:47:03.842Z,44.15
2022-07-30T14:57:03.958Z,44.06
2022-07-30T15:07:03.819Z,46.51
2022-07-30T15:17:04.649Z,48.00
2022-07-30T15:27:04.150Z,43.89
2022-07-30T15:37:05.433Z,44.19
2022-07-30T15:47:04.735Z,44.76
2022-07-30T15:57:04.889Z,47.49
2022-07-30T16:07:05.261Z,46.56
2022-07-30T16:17:05.190Z,51.77
2022-07-30T16:27:05.264Z,52.12
2022-07-30T16:37:05.478Z,53.34
2022-07-30T16:47:05.647Z,53.76
2022-07-30T16:57:08.336Z,55.46
2022-07-30T17:07:06.858Z,57.70
2022-07-30T17:17:07.218Z,58.72
2022-07-30T17:27:06.149Z,60.97
2022-07-30T17:37:06.253Z,61.15
2022-07-30T17:47:08.004Z,62.87
2022-07-30T17:57:07.451Z,63.47
2022-07-30T18:07:06.751Z,64.27
2022-07-30T18:17:09.046Z,64.30
2022-07-30T18:27:07.706Z,63.30
2022-07-30T18:37:06.766Z,64.13
2022-07-30T18:47:07.055Z,63.53
2022-07-30T18:57:10.116Z,63.96
2022-07-30T19:07:08.355Z,63.06
2022-07-30T19:17:14.176Z,62.26
2022-07-30T19:27:13.707Z,64.39
2022-07-30T19:37:09.076Z,64.19
2022-07-30T19:47:08.309Z,62.09
2022-07-30T19:57:08.537Z,63.02
2022-07-30T20:07:08.754Z,63.22
2022-07-30T20:17:13.114Z,63.95
2022-07-30T20:27:36.275Z,63.56
2022-07-30T20:47:10.229Z,65.42
2022-07-30T20:57:15.809Z,65.65
2022-07-30T21:07:10.637Z,65.15
2022-07-30T21:17:09.946Z,65.85
2022-07-30T21:27:10.085Z,65.45
2022-07-30T21:37:10.417Z,65.88
2022-07-30T21:47:10.852Z,64.95
2022-07-30T21:57:11.587Z,66.28
2022-07-30T22:07:10.815Z,66.82
2022-07-30T22:17:19.253Z,67.35
2022-07-30T22:27:14.702Z,67.25
2022-07-30T22:37:12.902Z,66.85
2022-07-30T22:47:21.828Z,67.25
2022-07-30T22:57:14.847Z,67.98
2022-07-30T23:07:13.994Z,68.59
2022-07-30T23:12:18.962Z,63.58
2022-07-30T23:17:12.961Z,68.68
2022-07-30T23:27:13.249Z,68.08
2022-07-30T23:37:14.760Z,68.52
2022-07-30T23:47:12.773Z,68.02
2022-07-30T23:57:12.616Z,69.02
